sensor_id;sensor_type;location;lat;lon;timestamp;P1;durP1;ratioP1;P2;durP2;ratioP2
10090;SDS011;5084;51.386;6.778;2023-02-03T00:01:17;15.73;;;12.93;;
10090;SDS011;5084;51.386;6.778;2023-02-03T00:03:43;17.53;;;12.93;;
10090;SDS011;5084;51.386;6.778;2023-02-03T00:06:09;14.90;;;12.57;;
10090;SDS011;5084;51.386;6.778;2023-02-03T00:08:36;18.77;;;13.57;;
10090;SDS011;5084;51.386;6.778;2023-02-03T00:11:03;14.43;;;12.93;;
10090;SDS011;5084;51.386;6.778;2023-02-03T00:13:29;14.17;;;12.40;;
10090;SDS011;5084;51.386;6.778;2023-02-03T00:15:55;15.30;;;12.73;;
10090;SDS011;5084;51.386;6.778;2023-02-03T00:18:21;15.47;;;12.80;;
10090;SDS011;5084;51.386;6.778;2023-02-03T00:20:47;14.10;;;12.60;;
10090;SDS011;5084;51.386;6.778;2023-02-03T00:23:13;17.87;;;11.93;;
10090;SDS011;5084;51.386;6.778;2023-02-03T00:25:39;15.53;;;12.77;;
10090;SDS011;5084;51.386;6.778;2023-02-03T00:28:05;14.97;;;12.57;;
10090;SDS011;5084;51.386;6.778;2023-02-03T00:30:35;13.77;;;12.17;;
10090;SDS011;5084;51.386;6.778;2023-02-03T00:33:01;16.00;;;13.00;;
10090;SDS011;5084;51.386;6.778;2023-02-03T00:35:27;13.37;;;11.97;;
10090;SDS011;5084;51.386;6.778;2023-02-03T00:37:54;14.70;;;12.07;;
10090;SDS011;5084;51.386;6.778;2023-02-03T00:40:21;14.03;;;12.57;;
10090;SDS011;5084;51.386;6.778;2023-02-03T00:42:47;15.83;;;12.90;;
10090;SDS011;5084;51.386;6.778;2023-02-03T00:45:14;12.90;;;11.40;;
10090;SDS011;5084;51.386;6.778;2023-02-03T00:47:40;14.27;;;11.00;;
10090;SDS011;5084;51.386;6.778;2023-02-03T00:50:06;15.23;;;11.73;;
10090;SDS011;5084;51.386;6.778;2023-02-03T00:52:32;14.73;;;11.07;;
10090;SDS011;5084;51.386;6.778;2023-02-03T00:54:58;13.60;;;10.57;;
10090;SDS011;5084;51.386;6.778;2023-02-03T00:57:24;13.03;;;10.40;;
10090;SDS011;5084;51.386;6.778;2023-02-03T00:59:50;12.40;;;10.37;;
10090;SDS011;5084;51.386;6.778;2023-02-03T01:02:16;11.90;;;10.70;;
10090;SDS011;5084;51.386;6.778;2023-02-03T01:04:43;14.30;;;10.47;;
10090;SDS011;5084;51.386;6.778;2023-02-03T01:07:09;15.90;;;10.77;;
10090;SDS011;5084;51.386;6.778;2023-02-03T01:09:35;16.10;;;11.47;;
10090;SDS011;5084;51.386;6.778;2023-02-03T01:12:02;12.67;;;11.33;;
10090;SDS011;5084;51.386;6.778;2023-02-03T01:14:28;14.50;;;11.67;;
10090;SDS011;5084;51.386;6.778;2023-02-03T01:16:54;14.70;;;11.53;;
10090;SDS011;5084;51.386;6.778;2023-02-03T01:19:20;14.30;;;10.23;;
10090;SDS011;5084;51.386;6.778;2023-02-03T01:21:46;17.70;;;11.77;;
10090;SDS011;5084;51.386;6.778;2023-02-03T01:24:12;11.33;;;10.20;;
10090;SDS011;5084;51.386;6.778;2023-02-03T01:26:41;13.83;;;10.60;;
10090;SDS011;5084;51.386;6.778;2023-02-03T01:29:08;14.27;;;10.93;;
10090;SDS011;5084;51.386;6.778;2023-02-03T01:31:35;13.07;;;10.80;;
10090;SDS011;5084;51.386;6.778;2023-02-03T01:34:03;13.17;;;9.87;;
10090;SDS011;5084;51.386;6.778;2023-02-03T01:36:30;11.40;;;8.83;;
10090;SDS011;5084;51.386;6.778;2023-02-03T01:38:56;11.17;;;9.30;;
10090;SDS011;5084;51.386;6.778;2023-02-03T01:41:24;11.00;;;9.83;;
10090;SDS011;5084;51.386;6.778;2023-02-03T01:43:51;12.20;;;10.17;;
10090;SDS011;5084;51.386;6.778;2023-02-03T01:46:32;11.73;;;9.27;;
10090;SDS011;5084;51.386;6.778;2023-02-03T01:49:12;10.07;;;9.00;;
10090;SDS011;5084;51.386;6.778;2023-02-03T01:51:39;13.23;;;9.43;;
10090;SDS011;5084;51.386;6.778;2023-02-03T01:54:11;11.17;;;8.97;;
10090;SDS011;5084;51.386;6.778;2023-02-03T01:56:39;10.93;;;8.70;;
10090;SDS011;5084;51.386;6.778;2023-02-03T01:59:07;13.70;;;9.20;;
10090;SDS011;5084;51.386;6.778;2023-02-03T02:01:33;10.33;;;8.67;;
10090;SDS011;5084;51.386;6.778;2023-02-03T02:04:01;12.60;;;8.93;;
10090;SDS011;5084;51.386;6.778;2023-02-03T02:06:28;9.70;;;8.70;;
10090;SDS011;5084;51.386;6.778;2023-02-03T02:08:54;14.93;;;8.73;;
10090;SDS011;5084;51.386;6.778;2023-02-03T02:11:22;11.17;;;9.07;;
10090;SDS011;5084;51.386;6.778;2023-02-03T02:13:48;9.63;;;8.00;;
10090;SDS011;5084;51.386;6.778;2023-02-03T02:27:06;8.93;;;8.03;;
10090;SDS011;5084;51.386;6.778;2023-02-03T02:29:39;11.60;;;7.97;;
10090;SDS011;5084;51.386;6.778;2023-02-03T02:34:49;9.93;;;8.93;;
10090;SDS011;5084;51.386;6.778;2023-02-03T02:37:19;12.33;;;8.37;;
10090;SDS011;5084;51.386;6.778;2023-02-03T02:39:52;11.93;;;8.53;;
10090;SDS011;5084;51.386;6.778;2023-02-03T02:42:23;9.90;;;8.07;;
10090;SDS011;5084;51.386;6.778;2023-02-03T02:44:52;9.83;;;7.30;;
10090;SDS011;5084;51.386;6.778;2023-02-03T02:47:21;8.50;;;7.23;;
10090;SDS011;5084;51.386;6.778;2023-02-03T02:49:58;10.50;;;7.17;;
10090;SDS011;5084;51.386;6.778;2023-02-03T02:52:26;7.57;;;6.70;;
10090;SDS011;5084;51.386;6.778;2023-02-03T02:54:55;8.67;;;6.73;;
10090;SDS011;5084;51.386;6.778;2023-02-03T02:57:23;12.03;;;7.37;;
10090;SDS011;5084;51.386;6.778;2023-02-03T02:59:50;8.90;;;7.40;;
10090;SDS011;5084;51.386;6.778;2023-02-03T03:02:16;9.97;;;6.90;;
10090;SDS011;5084;51.386;6.778;2023-02-03T03:04:42;9.83;;;6.60;;
10090;SDS011;5084;51.386;6.778;2023-02-03T03:07:15;11.30;;;7.57;;
10090;SDS011;5084;51.386;6.778;2023-02-03T03:09:43;8.70;;;7.43;;
10090;SDS011;5084;51.386;6.778;2023-02-03T03:14:38;9.70;;;7.20;;
10090;SDS011;5084;51.386;6.778;2023-02-03T03:17:06;10.60;;;7.27;;
10090;SDS011;5084;51.386;6.778;2023-02-03T03:19:34;8.60;;;7.43;;
10090;SDS011;5084;51.386;6.778;2023-02-03T03:22:02;11.73;;;8.10;;
10090;SDS011;5084;51.386;6.778;2023-02-03T03:24:30;7.93;;;6.97;;
10090;SDS011;5084;51.386;6.778;2023-02-03T03:27:12;11.43;;;6.30;;
10090;SDS011;5084;51.386;6.778;2023-02-03T03:32:05;7.47;;;6.50;;
10090;SDS011;5084;51.386;6.778;2023-02-03T03:34:31;10.83;;;6.83;;
10090;SDS011;5084;51.386;6.778;2023-02-03T03:37:09;11.57;;;7.20;;
10090;SDS011;5084;51.386;6.778;2023-02-03T03:39:53;8.13;;;6.90;;
10090;SDS011;5084;51.386;6.778;2023-02-03T03:42:22;9.90;;;7.77;;
10090;SDS011;5084;51.386;6.778;2023-02-03T03:47:23;14.93;;;7.70;;
10090;SDS011;5084;51.386;6.778;2023-02-03T03:49:52;10.23;;;7.03;;
10090;SDS011;5084;51.386;6.778;2023-02-03T03:52:20;8.03;;;7.20;;
10090;SDS011;5084;51.386;6.778;2023-02-03T03:54:48;11.90;;;7.30;;
10090;SDS011;5084;51.386;6.778;2023-02-03T03:57:17;10.70;;;7.27;;
10090;SDS011;5084;51.386;6.778;2023-02-03T03:59:44;11.20;;;6.93;;
10090;SDS011;5084;51.386;6.778;2023-02-03T04:02:11;10.30;;;7.47;;
10090;SDS011;5084;51.386;6.778;2023-02-03T04:04:38;9.43;;;6.80;;
10090;SDS011;5084;51.386;6.778;2023-02-03T04:07:04;9.77;;;6.97;;
10090;SDS011;5084;51.386;6.778;2023-02-03T04:09:30;9.13;;;6.50;;
10090;SDS011;5084;51.386;6.778;2023-02-03T04:12:00;11.03;;;6.30;;
10090;SDS011;5084;51.386;6.778;2023-02-03T04:14:30;10.27;;;7.60;;
10090;SDS011;5084;51.386;6.778;2023-02-03T04:16:57;8.93;;;8.23;;
10090;SDS011;5084;51.386;6.778;2023-02-03T04:19:23;11.27;;;6.17;;
10090;SDS011;5084;51.386;6.778;2023-02-03T04:21:49;8.57;;;5.53;;
10090;SDS011;5084;51.386;6.778;2023-02-03T04:24:15;9.03;;;6.00;;
10090;SDS011;5084;51.386;6.778;2023-02-03T04:26:42;10.47;;;5.93;;
10090;SDS011;5084;51.386;6.778;2023-02-03T04:29:08;9.30;;;7.23;;
10090;SDS011;5084;51.386;6.778;2023-02-03T04:31:34;10.60;;;7.23;;
10090;SDS011;5084;51.386;6.778;2023-02-03T04:34:00;6.33;;;5.70;;
10090;SDS011;5084;51.386;6.778;2023-02-03T04:36:26;6.53;;;5.73;;
10090;SDS011;5084;51.386;6.778;2023-02-03T04:38:52;8.60;;;5.80;;
10090;SDS011;5084;51.386;6.778;2023-02-03T04:41:18;7.00;;;5.83;;
10090;SDS011;5084;51.386;6.778;2023-02-03T04:43:44;7.13;;;5.27;;
10090;SDS011;5084;51.386;6.778;2023-02-03T04:46:10;8.43;;;6.20;;
10090;SDS011;5084;51.386;6.778;2023-02-03T04:48:36;7.73;;;5.63;;
10090;SDS011;5084;51.386;6.778;2023-02-03T04:51:03;6.93;;;5.07;;
10090;SDS011;5084;51.386;6.778;2023-02-03T04:53:29;9.57;;;5.23;;
10090;SDS011;5084;51.386;6.778;2023-02-03T04:55:56;7.00;;;4.90;;
10090;SDS011;5084;51.386;6.778;2023-02-03T04:58:22;6.47;;;5.00;;
10090;SDS011;5084;51.386;6.778;2023-02-03T05:00:48;6.73;;;5.53;;
10090;SDS011;5084;51.386;6.778;2023-02-03T05:03:14;7.07;;;5.20;;
10090;SDS011;5084;51.386;6.778;2023-02-03T05:05:40;10.00;;;6.00;;
10090;SDS011;5084;51.386;6.778;2023-02-03T05:08:06;5.93;;;5.00;;
10090;SDS011;5084;51.386;6.778;2023-02-03T05:10:32;6.43;;;4.23;;
10090;SDS011;5084;51.386;6.778;2023-02-03T05:12:58;9.63;;;5.47;;
10090;SDS011;5084;51.386;6.778;2023-02-03T05:15:24;6.70;;;4.90;;
10090;SDS011;5084;51.386;6.778;2023-02-03T05:17:51;11.60;;;5.00;;
10090;SDS011;5084;51.386;6.778;2023-02-03T05:20:17;7.43;;;4.77;;
10090;SDS011;5084;51.386;6.778;2023-02-03T05:22:43;8.80;;;5.40;;
10090;SDS011;5084;51.386;6.778;2023-02-03T05:25:09;6.73;;;5.53;;
10090;SDS011;5084;51.386;6.778;2023-02-03T05:27:36;7.20;;;4.47;;
10090;SDS011;5084;51.386;6.778;2023-02-03T05:30:03;7.77;;;4.40;;
10090;SDS011;5084;51.386;6.778;2023-02-03T05:32:30;8.27;;;4.77;;
10090;SDS011;5084;51.386;6.778;2023-02-03T05:34:56;6.20;;;4.63;;
10090;SDS011;5084;51.386;6.778;2023-02-03T05:37:22;8.37;;;4.20;;
10090;SDS011;5084;51.386;6.778;2023-02-03T05:39:48;5.80;;;4.30;;
10090;SDS011;5084;51.386;6.778;2023-02-03T05:42:14;5.30;;;3.97;;
10090;SDS011;5084;51.386;6.778;2023-02-03T05:44:40;5.43;;;3.83;;
10090;SDS011;5084;51.386;6.778;2023-02-03T05:47:06;7.50;;;4.30;;
10090;SDS011;5084;51.386;6.778;2023-02-03T05:49:32;10.50;;;3.87;;
10090;SDS011;5084;51.386;6.778;2023-02-03T05:51:58;7.47;;;3.80;;
10090;SDS011;5084;51.386;6.778;2023-02-03T05:54:24;6.07;;;3.53;;
10090;SDS011;5084;51.386;6.778;2023-02-03T05:56:50;6.23;;;3.37;;
10090;SDS011;5084;51.386;6.778;2023-02-03T05:59:16;3.80;;;3.20;;
10090;SDS011;5084;51.386;6.778;2023-02-03T06:01:42;5.13;;;3.50;;
10090;SDS011;5084;51.386;6.778;2023-02-03T06:04:08;8.10;;;4.13;;
10090;SDS011;5084;51.386;6.778;2023-02-03T06:06:35;8.03;;;4.07;;
10090;SDS011;5084;51.386;6.778;2023-02-03T06:09:02;4.53;;;3.60;;
10090;SDS011;5084;51.386;6.778;2023-02-03T06:11:29;6.23;;;3.87;;
10090;SDS011;5084;51.386;6.778;2023-02-03T06:13:55;6.67;;;3.53;;
10090;SDS011;5084;51.386;6.778;2023-02-03T06:16:25;5.10;;;3.87;;
10090;SDS011;5084;51.386;6.778;2023-02-03T06:18:52;6.70;;;3.50;;
10090;SDS011;5084;51.386;6.778;2023-02-03T06:21:19;6.80;;;3.50;;
10090;SDS011;5084;51.386;6.778;2023-02-03T06:23:45;7.83;;;3.17;;
10090;SDS011;5084;51.386;6.778;2023-02-03T06:26:11;6.27;;;2.80;;
10090;SDS011;5084;51.386;6.778;2023-02-03T06:28:37;6.40;;;3.50;;
10090;SDS011;5084;51.386;6.778;2023-02-03T06:31:04;5.67;;;2.93;;
10090;SDS011;5084;51.386;6.778;2023-02-03T06:33:30;6.10;;;2.77;;
10090;SDS011;5084;51.386;6.778;2023-02-03T06:35:56;4.93;;;3.10;;
10090;SDS011;5084;51.386;6.778;2023-02-03T06:38:22;5.60;;;3.10;;
10090;SDS011;5084;51.386;6.778;2023-02-03T06:40:48;4.97;;;3.10;;
10090;SDS011;5084;51.386;6.778;2023-02-03T06:43:15;6.27;;;2.87;;
10090;SDS011;5084;51.386;6.778;2023-02-03T06:45:43;6.83;;;2.67;;
10090;SDS011;5084;51.386;6.778;2023-02-03T06:48:10;3.77;;;2.70;;
10090;SDS011;5084;51.386;6.778;2023-02-03T06:50:36;5.00;;;2.93;;
10090;SDS011;5084;51.386;6.778;2023-02-03T06:53:02;6.90;;;3.57;;
10090;SDS011;5084;51.386;6.778;2023-02-03T06:55:28;5.03;;;3.00;;
10090;SDS011;5084;51.386;6.778;2023-02-03T06:57:54;5.57;;;2.90;;
10090;SDS011;5084;51.386;6.778;2023-02-03T07:00:20;6.93;;;3.83;;
10090;SDS011;5084;51.386;6.778;2023-02-03T07:02:52;7.07;;;3.13;;
10090;SDS011;5084;51.386;6.778;2023-02-03T07:05:18;4.27;;;2.70;;
10090;SDS011;5084;51.386;6.778;2023-02-03T07:07:44;9.93;;;3.80;;
10090;SDS011;5084;51.386;6.778;2023-02-03T07:10:10;8.97;;;3.27;;
10090;SDS011;5084;51.386;6.778;2023-02-03T07:12:36;5.17;;;2.80;;
10090;SDS011;5084;51.386;6.778;2023-02-03T07:15:02;6.20;;;2.83;;
10090;SDS011;5084;51.386;6.778;2023-02-03T07:17:29;4.53;;;2.93;;
10090;SDS011;5084;51.386;6.778;2023-02-03T07:19:55;4.13;;;2.70;;
10090;SDS011;5084;51.386;6.778;2023-02-03T07:22:21;4.37;;;2.83;;
10090;SDS011;5084;51.386;6.778;2023-02-03T07:24:47;8.57;;;3.07;;
10090;SDS011;5084;51.386;6.778;2023-02-03T07:27:13;4.07;;;2.90;;
10090;SDS011;5084;51.386;6.778;2023-02-03T07:29:39;4.63;;;3.20;;
10090;SDS011;5084;51.386;6.778;2023-02-03T07:32:05;3.87;;;3.03;;
10090;SDS011;5084;51.386;6.778;2023-02-03T07:34:31;5.57;;;3.10;;
10090;SDS011;5084;51.386;6.778;2023-02-03T07:36:57;5.33;;;2.57;;
10090;SDS011;5084;51.386;6.778;2023-02-03T07:39:23;7.93;;;2.90;;
10090;SDS011;5084;51.386;6.778;2023-02-03T07:41:49;5.10;;;2.87;;
10090;SDS011;5084;51.386;6.778;2023-02-03T07:44:15;7.27;;;3.67;;
10090;SDS011;5084;51.386;6.778;2023-02-03T07:46:41;5.70;;;2.80;;
10090;SDS011;5084;51.386;6.778;2023-02-03T07:49:10;4.03;;;2.73;;
10090;SDS011;5084;51.386;6.778;2023-02-03T07:51:36;3.73;;;2.97;;
10090;SDS011;5084;51.386;6.778;2023-02-03T07:54:02;5.13;;;3.20;;
10090;SDS011;5084;51.386;6.778;2023-02-03T07:56:28;5.73;;;3.17;;
10090;SDS011;5084;51.386;6.778;2023-02-03T07:58:56;3.67;;;2.57;;
10090;SDS011;5084;51.386;6.778;2023-02-03T08:01:22;4.03;;;2.80;;
10090;SDS011;5084;51.386;6.778;2023-02-03T08:03:48;3.80;;;3.30;;
10090;SDS011;5084;51.386;6.778;2023-02-03T08:06:15;9.00;;;3.03;;
10090;SDS011;5084;51.386;6.778;2023-02-03T08:08:41;4.07;;;2.57;;
10090;SDS011;5084;51.386;6.778;2023-02-03T08:11:07;5.07;;;3.10;;
10090;SDS011;5084;51.386;6.778;2023-02-03T08:13:33;4.37;;;3.00;;
10090;SDS011;5084;51.386;6.778;2023-02-03T08:15:59;4.87;;;3.17;;
10090;SDS011;5084;51.386;6.778;2023-02-03T08:18:26;6.23;;;3.20;;
10090;SDS011;5084;51.386;6.778;2023-02-03T08:20:52;5.67;;;3.33;;
10090;SDS011;5084;51.386;6.778;2023-02-03T08:23:18;6.77;;;3.63;;
10090;SDS011;5084;51.386;6.778;2023-02-03T08:25:44;5.53;;;3.00;;
10090;SDS011;5084;51.386;6.778;2023-02-03T08:28:10;5.77;;;3.13;;
10090;SDS011;5084;51.386;6.778;2023-02-03T08:30:36;6.40;;;3.63;;
10090;SDS011;5084;51.386;6.778;2023-02-03T08:33:03;6.23;;;3.70;;
10090;SDS011;5084;51.386;6.778;2023-02-03T08:35:29;4.67;;;3.10;;
10090;SDS011;5084;51.386;6.778;2023-02-03T08:37:55;4.63;;;3.70;;
10090;SDS011;5084;51.386;6.778;2023-02-03T08:40:21;5.40;;;3.20;;
10090;SDS011;5084;51.386;6.778;2023-02-03T08:42:47;8.43;;;4.27;;
10090;SDS011;5084;51.386;6.778;2023-02-03T08:45:13;5.70;;;3.73;;
10090;SDS011;5084;51.386;6.778;2023-02-03T08:47:39;4.97;;;3.50;;
10090;SDS011;5084;51.386;6.778;2023-02-03T08:50:06;4.97;;;3.07;;
10090;SDS011;5084;51.386;6.778;2023-02-03T08:52:32;6.33;;;3.53;;
10090;SDS011;5084;51.386;6.778;2023-02-03T08:54:58;6.10;;;3.80;;
10090;SDS011;5084;51.386;6.778;2023-02-03T08:57:24;4.53;;;3.40;;
10090;SDS011;5084;51.386;6.778;2023-02-03T08:59:50;6.77;;;3.20;;
10090;SDS011;5084;51.386;6.778;2023-02-03T09:02:17;4.37;;;3.07;;
10090;SDS011;5084;51.386;6.778;2023-02-03T09:04:44;5.43;;;3.73;;
10090;SDS011;5084;51.386;6.778;2023-02-03T09:07:11;6.07;;;3.87;;
10090;SDS011;5084;51.386;6.778;2023-02-03T09:09:37;4.27;;;3.50;;
10090;SDS011;5084;51.386;6.778;2023-02-03T09:12:07;6.73;;;4.10;;
10090;SDS011;5084;51.386;6.778;2023-02-03T09:14:35;4.30;;;3.63;;
10090;SDS011;5084;51.386;6.778;2023-02-03T09:17:02;4.93;;;3.87;;
10090;SDS011;5084;51.386;6.778;2023-02-03T09:19:28;4.13;;;3.60;;
10090;SDS011;5084;51.386;6.778;2023-02-03T09:21:55;5.20;;;4.00;;
10090;SDS011;5084;51.386;6.778;2023-02-03T09:24:23;5.93;;;3.67;;
10090;SDS011;5084;51.386;6.778;2023-02-03T09:26:50;6.07;;;3.70;;
10090;SDS011;5084;51.386;6.778;2023-02-03T09:29:16;5.57;;;4.27;;
10090;SDS011;5084;51.386;6.778;2023-02-03T09:31:42;6.87;;;4.33;;
10090;SDS011;5084;51.386;6.778;2023-02-03T09:34:10;5.17;;;4.23;;
10090;SDS011;5084;51.386;6.778;2023-02-03T09:36:36;6.40;;;4.60;;
10090;SDS011;5084;51.386;6.778;2023-02-03T09:39:03;6.13;;;4.10;;
10090;SDS011;5084;51.386;6.778;2023-02-03T09:41:34;6.97;;;3.97;;
10090;SDS011;5084;51.386;6.778;2023-02-03T09:46:46;5.33;;;4.40;;
10090;SDS011;5084;51.386;6.778;2023-02-03T09:51:47;7.17;;;4.17;;
10090;SDS011;5084;51.386;6.778;2023-02-03T09:54:17;5.83;;;4.20;;
10090;SDS011;5084;51.386;6.778;2023-02-03T09:56:44;7.03;;;4.00;;
10090;SDS011;5084;51.386;6.778;2023-02-03T09:59:16;8.33;;;5.20;;
10090;SDS011;5084;51.386;6.778;2023-02-03T10:01:51;6.97;;;5.33;;
10090;SDS011;5084;51.386;6.778;2023-02-03T10:04:36;6.03;;;4.90;;
10090;SDS011;5084;51.386;6.778;2023-02-03T10:09:36;6.57;;;5.60;;
10090;SDS011;5084;51.386;6.778;2023-02-03T10:17:33;7.50;;;5.73;;
10090;SDS011;5084;51.386;6.778;2023-02-03T10:22:55;5.93;;;5.03;;
10090;SDS011;5084;51.386;6.778;2023-02-03T10:25:21;6.97;;;5.33;;
10090;SDS011;5084;51.386;6.778;2023-02-03T10:27:50;6.03;;;4.90;;
10090;SDS011;5084;51.386;6.778;2023-02-03T10:30:23;6.20;;;5.10;;
10090;SDS011;5084;51.386;6.778;2023-02-03T10:32:53;6.40;;;4.73;;
10090;SDS011;5084;51.386;6.778;2023-02-03T10:35:24;8.23;;;5.33;;
10090;SDS011;5084;51.386;6.778;2023-02-03T10:37:53;6.53;;;5.07;;
10090;SDS011;5084;51.386;6.778;2023-02-03T10:40:22;5.87;;;5.27;;
10090;SDS011;5084;51.386;6.778;2023-02-03T10:42:49;8.33;;;5.47;;
10090;SDS011;5084;51.386;6.778;2023-02-03T10:45:37;6.77;;;4.67;;
10090;SDS011;5084;51.386;6.778;2023-02-03T10:48:04;8.53;;;5.20;;
10090;SDS011;5084;51.386;6.778;2023-02-03T10:50:34;5.90;;;4.90;;
10090;SDS011;5084;51.386;6.778;2023-02-03T10:55:46;9.33;;;6.17;;
10090;SDS011;5084;51.386;6.778;2023-02-03T10:58:14;8.17;;;5.23;;
10090;SDS011;5084;51.386;6.778;2023-02-03T11:00:41;5.17;;;4.67;;
10090;SDS011;5084;51.386;6.778;2023-02-03T11:03:27;5.60;;;4.90;;
10090;SDS011;5084;51.386;6.778;2023-02-03T11:06:13;5.27;;;4.57;;
10090;SDS011;5084;51.386;6.778;2023-02-03T11:08:43;7.73;;;5.07;;
10090;SDS011;5084;51.386;6.778;2023-02-03T11:11:25;8.17;;;4.90;;
10090;SDS011;5084;51.386;6.778;2023-02-03T11:13:52;8.07;;;4.43;;
10090;SDS011;5084;51.386;6.778;2023-02-03T11:16:18;6.40;;;4.40;;
10090;SDS011;5084;51.386;6.778;2023-02-03T11:18:52;4.27;;;3.87;;
10090;SDS011;5084;51.386;6.778;2023-02-03T11:21:22;6.67;;;4.20;;
10090;SDS011;5084;51.386;6.778;2023-02-03T11:26:20;5.37;;;4.60;;
10090;SDS011;5084;51.386;6.778;2023-02-03T11:28:48;6.83;;;4.07;;
10090;SDS011;5084;51.386;6.778;2023-02-03T11:31:22;7.60;;;4.13;;
10090;SDS011;5084;51.386;6.778;2023-02-03T11:33:56;6.53;;;3.57;;
10090;SDS011;5084;51.386;6.778;2023-02-03T11:36:27;6.53;;;4.03;;
10090;SDS011;5084;51.386;6.778;2023-02-03T11:39:07;5.23;;;3.87;;
10090;SDS011;5084;51.386;6.778;2023-02-03T11:41:35;5.67;;;3.70;;
10090;SDS011;5084;51.386;6.778;2023-02-03T11:44:09;4.93;;;3.83;;
10090;SDS011;5084;51.386;6.778;2023-02-03T11:46:36;6.67;;;3.70;;
10090;SDS011;5084;51.386;6.778;2023-02-03T11:49:04;6.07;;;4.07;;
10090;SDS011;5084;51.386;6.778;2023-02-03T11:54:19;10.07;;;4.07;;
10090;SDS011;5084;51.386;6.778;2023-02-03T11:57:00;4.87;;;3.60;;
10090;SDS011;5084;51.386;6.778;2023-02-03T12:02:12;9.07;;;3.90;;
10090;SDS011;5084;51.386;6.778;2023-02-03T12:04:52;8.93;;;4.17;;
10090;SDS011;5084;51.386;6.778;2023-02-03T12:17:22;8.20;;;3.80;;
10090;SDS011;5084;51.386;6.778;2023-02-03T12:30:40;8.23;;;4.57;;
10090;SDS011;5084;51.386;6.778;2023-02-03T12:33:18;5.50;;;4.17;;
10090;SDS011;5084;51.386;6.778;2023-02-03T12:35:50;6.57;;;3.87;;
10090;SDS011;5084;51.386;6.778;2023-02-03T12:40:59;5.40;;;3.90;;
10090;SDS011;5084;51.386;6.778;2023-02-03T12:46:10;8.10;;;4.20;;
10090;SDS011;5084;51.386;6.778;2023-02-03T12:51:05;6.07;;;3.80;;
10090;SDS011;5084;51.386;6.778;2023-02-03T12:53:33;8.23;;;5.30;;
10090;SDS011;5084;51.386;6.778;2023-02-03T12:56:08;9.37;;;4.70;;
10090;SDS011;5084;51.386;6.778;2023-02-03T12:58:40;7.53;;;4.27;;
10090;SDS011;5084;51.386;6.778;2023-02-03T13:01:11;10.27;;;5.23;;
10090;SDS011;5084;51.386;6.778;2023-02-03T13:09:24;8.10;;;5.23;;
10090;SDS011;5084;51.386;6.778;2023-02-03T13:16:57;9.90;;;4.70;;
10090;SDS011;5084;51.386;6.778;2023-02-03T13:19:26;6.60;;;4.80;;
10090;SDS011;5084;51.386;6.778;2023-02-03T13:21:54;8.13;;;4.57;;
10090;SDS011;5084;51.386;6.778;2023-02-03T13:24:21;9.07;;;4.57;;
10090;SDS011;5084;51.386;6.778;2023-02-03T13:35:16;5.73;;;4.33;;
10090;SDS011;5084;51.386;6.778;2023-02-03T13:40:36;8.87;;;4.30;;
10090;SDS011;5084;51.386;6.778;2023-02-03T13:43:05;8.13;;;4.33;;
10090;SDS011;5084;51.386;6.778;2023-02-03T13:45:37;8.20;;;4.27;;
10090;SDS011;5084;51.386;6.778;2023-02-03T13:50:33;7.63;;;4.83;;
10090;SDS011;5084;51.386;6.778;2023-02-03T13:55:36;7.10;;;3.60;;
10090;SDS011;5084;51.386;6.778;2023-02-03T13:58:03;7.93;;;3.73;;
10090;SDS011;5084;51.386;6.778;2023-02-03T14:03:14;5.53;;;3.83;;
10090;SDS011;5084;51.386;6.778;2023-02-03T14:06:01;5.63;;;3.50;;
10090;SDS011;5084;51.386;6.778;2023-02-03T14:13:38;5.50;;;3.87;;
10090;SDS011;5084;51.386;6.778;2023-02-03T14:16:21;6.63;;;4.17;;
10090;SDS011;5084;51.386;6.778;2023-02-03T14:18:48;4.80;;;3.57;;
10090;SDS011;5084;51.386;6.778;2023-02-03T14:21:23;3.87;;;3.43;;
10090;SDS011;5084;51.386;6.778;2023-02-03T14:24:01;6.73;;;4.10;;
10090;SDS011;5084;51.386;6.778;2023-02-03T14:26:38;7.93;;;4.23;;
10090;SDS011;5084;51.386;6.778;2023-02-03T14:29:06;7.80;;;4.00;;
10090;SDS011;5084;51.386;6.778;2023-02-03T14:31:50;6.90;;;4.20;;
10090;SDS011;5084;51.386;6.778;2023-02-03T14:34:16;4.93;;;3.73;;
10090;SDS011;5084;51.386;6.778;2023-02-03T14:36:45;5.70;;;4.30;;
10090;SDS011;5084;51.386;6.778;2023-02-03T14:42:04;7.07;;;3.97;;
10090;SDS011;5084;51.386;6.778;2023-02-03T14:44:47;6.90;;;3.60;;
10090;SDS011;5084;51.386;6.778;2023-02-03T14:50:18;6.47;;;3.70;;
10090;SDS011;5084;51.386;6.778;2023-02-03T14:52:55;5.63;;;3.33;;
10090;SDS011;5084;51.386;6.778;2023-02-03T14:55:44;6.20;;;2.93;;
10090;SDS011;5084;51.386;6.778;2023-02-03T14:58:21;7.77;;;2.83;;
10090;SDS011;5084;51.386;6.778;2023-02-03T15:00:50;6.90;;;3.57;;
10090;SDS011;5084;51.386;6.778;2023-02-03T15:03:19;5.97;;;3.33;;
10090;SDS011;5084;51.386;6.778;2023-02-03T15:05:47;7.23;;;2.87;;
10090;SDS011;5084;51.386;6.778;2023-02-03T15:10:55;8.73;;;3.03;;
10090;SDS011;5084;51.386;6.778;2023-02-03T15:15:54;5.10;;;3.23;;
10090;SDS011;5084;51.386;6.778;2023-02-03T15:18:30;6.07;;;3.13;;
10090;SDS011;5084;51.386;6.778;2023-02-03T15:20:57;6.47;;;3.03;;
10090;SDS011;5084;51.386;6.778;2023-02-03T15:23:28;6.67;;;3.00;;
10090;SDS011;5084;51.386;6.778;2023-02-03T15:25:59;8.80;;;3.50;;
10090;SDS011;5084;51.386;6.778;2023-02-03T15:28:26;6.13;;;3.47;;
10090;SDS011;5084;51.386;6.778;2023-02-03T15:33:25;10.40;;;3.30;;
10090;SDS011;5084;51.386;6.778;2023-02-03T15:35:58;6.57;;;3.00;;
10090;SDS011;5084;51.386;6.778;2023-02-03T15:38:28;5.93;;;2.90;;
10090;SDS011;5084;51.386;6.778;2023-02-03T15:40:59;7.10;;;3.37;;
10090;SDS011;5084;51.386;6.778;2023-02-03T15:43:31;5.77;;;3.10;;
10090;SDS011;5084;51.386;6.778;2023-02-03T15:46:20;8.53;;;3.87;;
10090;SDS011;5084;51.386;6.778;2023-02-03T15:48:58;9.13;;;4.20;;
10090;SDS011;5084;51.386;6.778;2023-02-03T15:51:30;8.17;;;4.17;;
10090;SDS011;5084;51.386;6.778;2023-02-03T15:54:02;6.10;;;3.43;;
10090;SDS011;5084;51.386;6.778;2023-02-03T15:56:37;5.67;;;3.97;;
10090;SDS011;5084;51.386;6.778;2023-02-03T15:59:05;9.83;;;3.63;;
10090;SDS011;5084;51.386;6.778;2023-02-03T16:01:31;10.70;;;3.37;;
10090;SDS011;5084;51.386;6.778;2023-02-03T16:03:57;7.83;;;3.53;;
10090;SDS011;5084;51.386;6.778;2023-02-03T16:06:26;5.97;;;3.00;;
10090;SDS011;5084;51.386;6.778;2023-02-03T16:08:54;5.53;;;4.30;;
10090;SDS011;5084;51.386;6.778;2023-02-03T16:11:22;10.57;;;4.97;;
10090;SDS011;5084;51.386;6.778;2023-02-03T16:13:48;4.93;;;3.27;;
10090;SDS011;5084;51.386;6.778;2023-02-03T16:16:16;8.10;;;3.97;;
10090;SDS011;5084;51.386;6.778;2023-02-03T16:21:26;8.40;;;4.33;;
10090;SDS011;5084;51.386;6.778;2023-02-03T16:23:53;11.40;;;4.13;;
10090;SDS011;5084;51.386;6.778;2023-02-03T16:26:21;12.07;;;4.03;;
10090;SDS011;5084;51.386;6.778;2023-02-03T16:31:52;7.13;;;3.57;;
10090;SDS011;5084;51.386;6.778;2023-02-03T16:34:37;11.63;;;5.17;;
10090;SDS011;5084;51.386;6.778;2023-02-03T16:37:27;8.93;;;4.40;;
10090;SDS011;5084;51.386;6.778;2023-02-03T16:40:13;12.77;;;4.20;;
10090;SDS011;5084;51.386;6.778;2023-02-03T16:43:00;9.23;;;4.10;;
10090;SDS011;5084;51.386;6.778;2023-02-03T16:45:49;8.00;;;4.07;;
10090;SDS011;5084;51.386;6.778;2023-02-03T16:48:35;11.73;;;4.13;;
10090;SDS011;5084;51.386;6.778;2023-02-03T16:51:19;14.33;;;5.97;;
10090;SDS011;5084;51.386;6.778;2023-02-03T16:53:45;11.30;;;4.47;;
10090;SDS011;5084;51.386;6.778;2023-02-03T16:56:12;11.33;;;4.30;;
10090;SDS011;5084;51.386;6.778;2023-02-03T16:58:38;11.67;;;4.83;;
10090;SDS011;5084;51.386;6.778;2023-02-03T17:01:05;14.47;;;5.23;;
10090;SDS011;5084;51.386;6.778;2023-02-03T17:03:35;11.13;;;4.27;;
10090;SDS011;5084;51.386;6.778;2023-02-03T17:06:02;13.07;;;5.03;;
10090;SDS011;5084;51.386;6.778;2023-02-03T17:08:29;11.70;;;5.60;;
10090;SDS011;5084;51.386;6.778;2023-02-03T17:11:00;14.60;;;4.53;;
10090;SDS011;5084;51.386;6.778;2023-02-03T17:13:26;7.13;;;4.00;;
10090;SDS011;5084;51.386;6.778;2023-02-03T17:15:52;10.00;;;3.90;;